sensor_id;sensor_type;location;lat;lon;timestamp;pressure;altitude;pressure_sealevel;temperature
19196;BMP280;9730;48.926;11.376;2022-12-13T00:00:20;96944.38;;;-7.44
19196;BMP280;9730;48.926;11.376;2022-12-13T00:02:47;96941.69;;;-7.62
19196;BMP280;9730;48.926;11.376;2022-12-13T00:05:14;96941.56;;;-7.68
19196;BMP280;9730;48.926;11.376;2022-12-13T00:07:40;96936.63;;;-7.71
19196;BMP280;9730;48.926;11.376;2022-12-13T00:10:07;96927.66;;;-7.72
19196;BMP280;9730;48.926;11.376;2022-12-13T00:12:35;96918.63;;;-7.74
19196;BMP280;9730;48.926;11.376;2022-12-13T00:15:02;96924.34;;;-7.74
19196;BMP280;9730;48.926;11.376;2022-12-13T00:17:30;96928.13;;;-7.38
19196;BMP280;9730;48.926;11.376;2022-12-13T00:19:57;96927.13;;;-7.50
19196;BMP280;9730;48.926;11.376;2022-12-13T00:22:24;96925.97;;;-7.76
19196;BMP280;9730;48.926;11.376;2022-12-13T00:24:52;96928.53;;;-7.67
19196;BMP280;9730;48.926;11.376;2022-12-13T00:27:19;96921.88;;;-7.75
19196;BMP280;9730;48.926;11.376;2022-12-13T00:29:47;96924.56;;;-7.60
19196;BMP280;9730;48.926;11.376;2022-12-13T00:32:14;96927.53;;;-7.78
19196;BMP280;9730;48.926;11.376;2022-12-13T00:34:40;96924.22;;;-7.84
19196;BMP280;9730;48.926;11.376;2022-12-13T00:37:07;96908.63;;;-7.88
19196;BMP280;9730;48.926;11.376;2022-12-13T00:39:33;96909.34;;;-7.94
19196;BMP280;9730;48.926;11.376;2022-12-13T00:42:00;96905.38;;;-7.88
19196;BMP280;9730;48.926;11.376;2022-12-13T00:44:27;96902.97;;;-7.85
19196;BMP280;9730;48.926;11.376;2022-12-13T00:46:55;96907.25;;;-7.71
19196;BMP280;9730;48.926;11.376;2022-12-13T00:49:21;96892.47;;;-7.77
19196;BMP280;9730;48.926;11.376;2022-12-13T00:51:48;96899.78;;;-7.80
19196;BMP280;9730;48.926;11.376;2022-12-13T00:54:15;96892.59;;;-7.68
19196;BMP280;9730;48.926;11.376;2022-12-13T00:56:42;96894.50;;;-7.49
19196;BMP280;9730;48.926;11.376;2022-12-13T00:59:12;96880.75;;;-7.38
19196;BMP280;9730;48.926;11.376;2022-12-13T01:01:39;96883.28;;;-7.31
19196;BMP280;9730;48.926;11.376;2022-12-13T01:04:07;96871.19;;;-7.20
19196;BMP280;9730;48.926;11.376;2022-12-13T01:06:36;96875.31;;;-7.18
19196;BMP280;9730;48.926;11.376;2022-12-13T01:09:05;96874.53;;;-7.14
19196;BMP280;9730;48.926;11.376;2022-12-13T01:11:31;96877.81;;;-7.13
19196;BMP280;9730;48.926;11.376;2022-12-13T01:13:58;96882.44;;;-7.36
19196;BMP280;9730;48.926;11.376;2022-12-13T01:16:25;96888.16;;;-7.35
19196;BMP280;9730;48.926;11.376;2022-12-13T01:18:52;96884.75;;;-7.43
19196;BMP280;9730;48.926;11.376;2022-12-13T01:21:19;96877.31;;;-7.52
19196;BMP280;9730;48.926;11.376;2022-12-13T01:23:46;96879.81;;;-7.46
19196;BMP280;9730;48.926;11.376;2022-12-13T01:26:14;96882.13;;;-7.58
19196;BMP280;9730;48.926;11.376;2022-12-13T01:28:41;96879.78;;;-7.49
19196;BMP280;9730;48.926;11.376;2022-12-13T01:31:09;96866.09;;;-7.34
19196;BMP280;9730;48.926;11.376;2022-12-13T01:33:36;96874.47;;;-7.18
19196;BMP280;9730;48.926;11.376;2022-12-13T01:36:05;96872.16;;;-7.06
19196;BMP280;9730;48.926;11.376;2022-12-13T01:38:35;96876.38;;;-6.95
19196;BMP280;9730;48.926;11.376;2022-12-13T01:41:01;96873.59;;;-7.23
19196;BMP280;9730;48.926;11.376;2022-12-13T01:43:49;96868.66;;;-7.26
19196;BMP280;9730;48.926;11.376;2022-12-13T01:46:17;96866.28;;;-7.20
19196;BMP280;9730;48.926;11.376;2022-12-13T01:48:48;96860.41;;;-7.33
19196;BMP280;9730;48.926;11.376;2022-12-13T01:51:21;96854.97;;;-7.11
19196;BMP280;9730;48.926;11.376;2022-12-13T01:53:51;96855.97;;;-6.92
19196;BMP280;9730;48.926;11.376;2022-12-13T01:56:21;96850.34;;;-6.83
19196;BMP280;9730;48.926;11.376;2022-12-13T01:58:51;96854.53;;;-6.73
19196;BMP280;9730;48.926;11.376;2022-12-13T02:01:21;96856.09;;;-6.81
19196;BMP280;9730;48.926;11.376;2022-12-13T02:03:49;96863.69;;;-6.57
19196;BMP280;9730;48.926;11.376;2022-12-13T02:06:22;96860.41;;;-6.59
19196;BMP280;9730;48.926;11.376;2022-12-13T02:08:53;96863.66;;;-6.63
19196;BMP280;9730;48.926;11.376;2022-12-13T02:11:20;96853.78;;;-6.67
19196;BMP280;9730;48.926;11.376;2022-12-13T02:13:46;96861.00;;;-6.82
19196;BMP280;9730;48.926;11.376;2022-12-13T02:16:22;96864.34;;;-6.74
19196;BMP280;9730;48.926;11.376;2022-12-13T02:19:01;96852.97;;;-6.65
19196;BMP280;9730;48.926;11.376;2022-12-13T02:21:35;96857.84;;;-6.71
19196;BMP280;9730;48.926;11.376;2022-12-13T02:24:33;96864.22;;;-6.87
19196;BMP280;9730;48.926;11.376;2022-12-13T02:27:09;96854.44;;;-6.84
19196;BMP280;9730;48.926;11.376;2022-12-13T02:32:43;96852.06;;;-6.74
19196;BMP280;9730;48.926;11.376;2022-12-13T02:35:16;96856.94;;;-6.79
19196;BMP280;9730;48.926;11.376;2022-12-13T02:37:49;96848.66;;;-6.88
19196;BMP280;9730;48.926;11.376;2022-12-13T02:40:21;96855.16;;;-6.93
19196;BMP280;9730;48.926;11.376;2022-12-13T02:42:55;96856.75;;;-6.95
19196;BMP280;9730;48.926;11.376;2022-12-13T02:45:29;96858.41;;;-6.94
19196;BMP280;9730;48.926;11.376;2022-12-13T02:47:59;96854.31;;;-6.93
19196;BMP280;9730;48.926;11.376;2022-12-13T02:50:27;96857.53;;;-6.99
19196;BMP280;9730;48.926;11.376;2022-12-13T02:52:55;96853.53;;;-6.92
19196;BMP280;9730;48.926;11.376;2022-12-13T02:55:24;96847.88;;;-6.84
19196;BMP280;9730;48.926;11.376;2022-12-13T02:57:50;96859.03;;;-7.11
19196;BMP280;9730;48.926;11.376;2022-12-13T03:00:20;96857.41;;;-7.12
19196;BMP280;9730;48.926;11.376;2022-12-13T03:02:58;96836.28;;;-7.01
19196;BMP280;9730;48.926;11.376;2022-12-13T03:05:32;96833.84;;;-6.97
19196;BMP280;9730;48.926;11.376;2022-12-13T03:08:21;96835.56;;;-6.91
19196;BMP280;9730;48.926;11.376;2022-12-13T03:10:58;96826.66;;;-6.83
19196;BMP280;9730;48.926;11.376;2022-12-13T03:13:33;96826.66;;;-6.82
19196;BMP280;9730;48.926;11.376;2022-12-13T03:16:08;96819.25;;;-6.85
19196;BMP280;9730;48.926;11.376;2022-12-13T03:18:38;96821.66;;;-6.91
19196;BMP280;9730;48.926;11.376;2022-12-13T03:21:08;96815.91;;;-6.94
19196;BMP280;9730;48.926;11.376;2022-12-13T03:23:36;96816.72;;;-6.95
19196;BMP280;9730;48.926;11.376;2022-12-13T03:26:06;96824.09;;;-6.92
19196;BMP280;9730;48.926;11.376;2022-12-13T03:28:34;96826.47;;;-7.00
19196;BMP280;9730;48.926;11.376;2022-12-13T03:31:01;96824.81;;;-7.01
19196;BMP280;9730;48.926;11.376;2022-12-13T03:33:28;96815.91;;;-6.96
19196;BMP280;9730;48.926;11.376;2022-12-13T03:35:56;96813.38;;;-7.00
19196;BMP280;9730;48.926;11.376;2022-12-13T03:38:23;96815.03;;;-6.99
19196;BMP280;9730;48.926;11.376;2022-12-13T03:40:53;96823.16;;;-7.05
19196;BMP280;9730;48.926;11.376;2022-12-13T03:43:23;96813.31;;;-7.06
19196;BMP280;9730;48.926;11.376;2022-12-13T03:45:50;96816.75;;;-6.91
19196;BMP280;9730;48.926;11.376;2022-12-13T03:48:17;96822.38;;;-7.02
19196;BMP280;9730;48.926;11.376;2022-12-13T03:50:44;96818.22;;;-7.06
19196;BMP280;9730;48.926;11.376;2022-12-13T03:53:12;96803.50;;;-7.08
19196;BMP280;9730;48.926;11.376;2022-12-13T03:55:38;96810.81;;;-7.12
19196;BMP280;9730;48.926;11.376;2022-12-13T03:58:05;96796.09;;;-7.14
19196;BMP280;9730;48.926;11.376;2022-12-13T04:00:32;96803.44;;;-7.15
19196;BMP280;9730;48.926;11.376;2022-12-13T04:02:58;96797.78;;;-7.08
19196;BMP280;9730;48.926;11.376;2022-12-13T04:05:25;96802.59;;;-7.14
19196;BMP280;9730;48.926;11.376;2022-12-13T04:07:52;96803.47;;;-7.12
19196;BMP280;9730;48.926;11.376;2022-12-13T04:10:20;96809.19;;;-7.10
19196;BMP280;9730;48.926;11.376;2022-12-13T04:12:47;96792.06;;;-7.07
19196;BMP280;9730;48.926;11.376;2022-12-13T04:15:31;96789.59;;;-7.10
19196;BMP280;9730;48.926;11.376;2022-12-13T04:17:58;96797.72;;;-7.11
19196;BMP280;9730;48.926;11.376;2022-12-13T04:20:24;96806.03;;;-7.00
19196;BMP280;9730;48.926;11.376;2022-12-13T04:22:51;96805.94;;;-7.09
19196;BMP280;9730;48.926;11.376;2022-12-13T04:25:17;96806.75;;;-7.10
19196;BMP280;9730;48.926;11.376;2022-12-13T04:27:45;96811.63;;;-7.12
19196;BMP280;9730;48.926;11.376;2022-12-13T04:30:12;96804.22;;;-7.18
19196;BMP280;9730;48.926;11.376;2022-12-13T04:32:38;96803.34;;;-7.21
19196;BMP280;9730;48.926;11.376;2022-12-13T04:35:05;96795.13;;;-7.29
19196;BMP280;9730;48.926;11.376;2022-12-13T04:37:32;96790.16;;;-7.32
19196;BMP280;9730;48.926;11.376;2022-12-13T04:39:59;96793.44;;;-7.33
19196;BMP280;9730;48.926;11.376;2022-12-13T04:42:25;96790.09;;;-7.38
19196;BMP280;9730;48.926;11.376;2022-12-13T04:44:53;96789.22;;;-7.43
19196;BMP280;9730;48.926;11.376;2022-12-13T04:47:20;96798.16;;;-7.48
19196;BMP280;9730;48.926;11.376;2022-12-13T04:49:46;96781.84;;;-7.46
19196;BMP280;9730;48.926;11.376;2022-12-13T04:52:13;96797.31;;;-7.48
19196;BMP280;9730;48.926;11.376;2022-12-13T04:54:39;96793.09;;;-7.60
19196;BMP280;9730;48.926;11.376;2022-12-13T04:57:09;96785.00;;;-7.56
19196;BMP280;9730;48.926;11.376;2022-12-13T04:59:36;96785.69;;;-7.66
19196;BMP280;9730;48.926;11.376;2022-12-13T05:02:05;96785.50;;;-7.79
19196;BMP280;9730;48.926;11.376;2022-12-13T05:04:32;96773.22;;;-7.82
19196;BMP280;9730;48.926;11.376;2022-12-13T05:06:59;96772.31;;;-7.89
19196;BMP280;9730;48.926;11.376;2022-12-13T05:09:26;96773.22;;;-7.84
19196;BMP280;9730;48.926;11.376;2022-12-13T05:11:53;96781.53;;;-7.71
19196;BMP280;9730;48.926;11.376;2022-12-13T05:14:19;96789.47;;;-7.87
19196;BMP280;9730;48.926;11.376;2022-12-13T05:16:46;96769.84;;;-7.91
19196;BMP280;9730;48.926;11.376;2022-12-13T05:19:13;96781.44;;;-7.79
19196;BMP280;9730;48.926;11.376;2022-12-13T05:21:40;96797.59;;;-7.92
19196;BMP280;9730;48.926;11.376;2022-12-13T05:24:07;96787.72;;;-7.97
19196;BMP280;9730;48.926;11.376;2022-12-13T05:26:34;96786.75;;;-8.06
19196;BMP280;9730;48.926;11.376;2022-12-13T05:29:01;96781.94;;;-8.03
19196;BMP280;9730;48.926;11.376;2022-12-13T05:31:28;96786.75;;;-8.06
19196;BMP280;9730;48.926;11.376;2022-12-13T05:33:54;96790.16;;;-7.97
19196;BMP280;9730;48.926;11.376;2022-12-13T05:36:22;96794.44;;;-7.84
19196;BMP280;9730;48.926;11.376;2022-12-13T05:38:49;96794.19;;;-8.02
19196;BMP280;9730;48.926;11.376;2022-12-13T05:41:17;96784.25;;;-8.14
19196;BMP280;9730;48.926;11.376;2022-12-13T05:43:45;96780.88;;;-8.20
19196;BMP280;9730;48.926;11.376;2022-12-13T05:46:12;96780.84;;;-8.25
19196;BMP280;9730;48.926;11.376;2022-12-13T05:48:39;96777.72;;;-8.13
19196;BMP280;9730;48.926;11.376;2022-12-13T05:51:06;96776.88;;;-8.17
19196;BMP280;9730;48.926;11.376;2022-12-13T05:53:34;96778.34;;;-8.28
19196;BMP280;9730;48.926;11.376;2022-12-13T05:56:00;96776.72;;;-8.26
19196;BMP280;9730;48.926;11.376;2022-12-13T05:58:27;96782.28;;;-8.37
19196;BMP280;9730;48.926;11.376;2022-12-13T06:00:54;96784.75;;;-8.36
19196;BMP280;9730;48.926;11.376;2022-12-13T06:03:20;96782.88;;;-8.51
19196;BMP280;9730;48.926;11.376;2022-12-13T06:05:47;96782.97;;;-8.45
19196;BMP280;9730;48.926;11.376;2022-12-13T06:08:13;96780.47;;;-8.50
19196;BMP280;9730;48.926;11.376;2022-12-13T06:10:41;96772.19;;;-8.56
19196;BMP280;9730;48.926;11.376;2022-12-13T06:13:08;96773.09;;;-8.53
19196;BMP280;9730;48.926;11.376;2022-12-13T06:15:36;96774.63;;;-8.58
19196;BMP280;9730;48.926;11.376;2022-12-13T06:18:03;96772.25;;;-8.52
19196;BMP280;9730;48.926;11.376;2022-12-13T06:20:29;96778.84;;;-8.48
19196;BMP280;9730;48.926;11.376;2022-12-13T06:22:57;96780.31;;;-8.57
19196;BMP280;9730;48.926;11.376;2022-12-13T06:25:24;96782.78;;;-8.57
19196;BMP280;9730;48.926;11.376;2022-12-13T06:27:53;96783.63;;;-8.57
19196;BMP280;9730;48.926;11.376;2022-12-13T06:30:19;96785.28;;;-8.56
19196;BMP280;9730;48.926;11.376;2022-12-13T06:32:47;96786.94;;;-8.50
19196;BMP280;9730;48.926;11.376;2022-12-13T06:35:13;96787.59;;;-8.62
19196;BMP280;9730;48.926;11.376;2022-12-13T06:37:40;96787.28;;;-8.81
19196;BMP280;9730;48.926;11.376;2022-12-13T06:40:08;96796.38;;;-8.73
19196;BMP280;9730;48.926;11.376;2022-12-13T06:42:34;96793.00;;;-8.81
19196;BMP280;9730;48.926;11.376;2022-12-13T06:45:03;96799.31;;;-8.93
19196;BMP280;9730;48.926;11.376;2022-12-13T06:47:29;96781.56;;;-8.82
19196;BMP280;9730;48.926;11.376;2022-12-13T06:49:56;96785.59;;;-8.84
19196;BMP280;9730;48.926;11.376;2022-12-13T06:52:23;96788.84;;;-8.86
19196;BMP280;9730;48.926;11.376;2022-12-13T06:54:50;96792.13;;;-8.84
19196;BMP280;9730;48.926;11.376;2022-12-13T06:57:16;96788.00;;;-8.87
19196;BMP280;9730;48.926;11.376;2022-12-13T06:59:43;96796.25;;;-8.82
19196;BMP280;9730;48.926;11.376;2022-12-13T07:02:11;96796.25;;;-8.82
19196;BMP280;9730;48.926;11.376;2022-12-13T07:04:37;96805.00;;;-8.93
19196;BMP280;9730;48.926;11.376;2022-12-13T07:07:04;96791.09;;;-8.96
19196;BMP280;9730;48.926;11.376;2022-12-13T07:09:31;96789.66;;;-8.86
19196;BMP280;9730;48.926;11.376;2022-12-13T07:11:58;96783.41;;;-8.69
19196;BMP280;9730;48.926;11.376;2022-12-13T07:14:25;96794.84;;;-8.68
19196;BMP280;9730;48.926;11.376;2022-12-13T07:16:51;96790.78;;;-8.66
19196;BMP280;9730;48.926;11.376;2022-12-13T07:19:19;96791.34;;;-8.83
19196;BMP280;9730;48.926;11.376;2022-12-13T07:21:45;96800.47;;;-8.73
19196;BMP280;9730;48.926;11.376;2022-12-13T07:24:12;96797.16;;;-8.75
19196;BMP280;9730;48.926;11.376;2022-12-13T07:26:38;96796.91;;;-8.90
19196;BMP280;9730;48.926;11.376;2022-12-13T07:29:05;96779.91;;;-8.83
19196;BMP280;9730;48.926;11.376;2022-12-13T07:31:33;96776.72;;;-8.79
19196;BMP280;9730;48.926;11.376;2022-12-13T07:34:00;96772.69;;;-8.77
19196;BMP280;9730;48.926;11.376;2022-12-13T07:36:28;96768.78;;;-8.66
19196;BMP280;9730;48.926;11.376;2022-12-13T07:38:56;96769.78;;;-8.55
19196;BMP280;9730;48.926;11.376;2022-12-13T07:41:24;96780.53;;;-8.44
19196;BMP280;9730;48.926;11.376;2022-12-13T07:43:54;96801.81;;;-8.39
19196;BMP280;9730;48.926;11.376;2022-12-13T07:46:21;96804.13;;;-8.49
19196;BMP280;9730;48.926;11.376;2022-12-13T07:48:47;96811.81;;;-8.27
19196;BMP280;9730;48.926;11.376;2022-12-13T07:51:14;96823.81;;;-8.40
19196;BMP280;9730;48.926;11.376;2022-12-13T07:53:42;96810.22;;;-8.23
19196;BMP280;9730;48.926;11.376;2022-12-13T07:56:10;96806.00;;;-8.32
19196;BMP280;9730;48.926;11.376;2022-12-13T07:58:37;96805.31;;;-8.23
19196;BMP280;9730;48.926;11.376;2022-12-13T08:01:06;96807.97;;;-8.07
19196;BMP280;9730;48.926;11.376;2022-12-13T08:03:34;96818.75;;;-7.94
19196;BMP280;9730;48.926;11.376;2022-12-13T08:06:01;96832.00;;;-7.81
19196;BMP280;9730;48.926;11.376;2022-12-13T08:08:28;96832.81;;;-7.80
19196;BMP280;9730;48.926;11.376;2022-12-13T08:11:00;96835.25;;;-7.82
19196;BMP280;9730;48.926;11.376;2022-12-13T08:13:27;96829.59;;;-7.79
19196;BMP280;9730;48.926;11.376;2022-12-13T08:15:57;96829.59;;;-7.79
19196;BMP280;9730;48.926;11.376;2022-12-13T08:18:24;96831.25;;;-7.77
19196;BMP280;9730;48.926;11.376;2022-12-13T08:20:50;96817.63;;;-7.57
19196;BMP280;9730;48.926;11.376;2022-12-13T08:23:17;96811.16;;;-7.52
19196;BMP280;9730;48.926;11.376;2022-12-13T08:25:49;96825.31;;;-7.32
19196;BMP280;9730;48.926;11.376;2022-12-13T08:28:18;96832.47;;;-7.46
19196;BMP280;9730;48.926;11.376;2022-12-13T08:30:45;96831.00;;;-7.34
19196;BMP280;9730;48.926;11.376;2022-12-13T08:33:12;96833.84;;;-6.98
19196;BMP280;9730;48.926;11.376;2022-12-13T08:35:38;96841.25;;;-6.94
19196;BMP280;9730;48.926;11.376;2022-12-13T08:38:05;96840.66;;;-6.74
19196;BMP280;9730;48.926;11.376;2022-12-13T08:40:31;96843.13;;;-6.71
19196;BMP280;9730;48.926;11.376;2022-12-13T08:42:59;96845.00;;;-6.46
19196;BMP280;9730;48.926;11.376;2022-12-13T08:45:27;96844.25;;;-6.36
19196;BMP280;9730;48.926;11.376;2022-12-13T08:47:56;96835.19;;;-6.46
19196;BMP280;9730;48.926;11.376;2022-12-13T08:50:23;96832.78;;;-6.38
19196;BMP280;9730;48.926;11.376;2022-12-13T08:52:50;96831.19;;;-6.32
19196;BMP280;9730;48.926;11.376;2022-12-13T08:55:17;96842.66;;;-6.31
19196;BMP280;9730;48.926;11.376;2022-12-13T08:57:44;96837.69;;;-6.37
19196;BMP280;9730;48.926;11.376;2022-12-13T09:00:12;96831.19;;;-6.33
19196;BMP280;9730;48.926;11.376;2022-12-13T09:02:40;96824.56;;;-6.43
19196;BMP280;9730;48.926;11.376;2022-12-13T09:05:08;96823.72;;;-6.47
19196;BMP280;9730;48.926;11.376;2022-12-13T09:07:35;96828.69;;;-6.39
19196;BMP280;9730;48.926;11.376;2022-12-13T09:10:04;96824.31;;;-6.70
19196;BMP280;9730;48.926;11.376;2022-12-13T09:12:30;96812.75;;;-6.84
19196;BMP280;9730;48.926;11.376;2022-12-13T09:14:57;96810.25;;;-6.90
19196;BMP280;9730;48.926;11.376;2022-12-13T09:17:24;96797.06;;;-6.98
19196;BMP280;9730;48.926;11.376;2022-12-13T09:19:52;96781.31;;;-7.18
19196;BMP280;9730;48.926;11.376;2022-12-13T09:22:18;96766.56;;;-7.24
19196;BMP280;9730;48.926;11.376;2022-12-13T09:24:45;96781.56;;;-6.96
19196;BMP280;9730;48.926;11.376;2022-12-13T09:27:12;96782.59;;;-6.73
19196;BMP280;9730;48.926;11.376;2022-12-13T09:29:39;96790.53;;;-6.96
19196;BMP280;9730;48.926;11.376;2022-12-13T09:32:05;96793.19;;;-6.74
19196;BMP280;9730;48.926;11.376;2022-12-13T09:34:32;96791.81;;;-6.45
19196;BMP280;9730;48.926;11.376;2022-12-13T09:37:00;96788.28;;;-6.76
19196;BMP280;9730;48.926;11.376;2022-12-13T09:39:26;96779.34;;;-6.69
19196;BMP280;9730;48.926;11.376;2022-12-13T09:41:55;96771.13;;;-6.73
19196;BMP280;9730;48.926;11.376;2022-12-13T09:44:22;96760.28;;;-7.00
19196;BMP280;9730;48.926;11.376;2022-12-13T09:46:51;96754.63;;;-6.93
19196;BMP280;9730;48.926;11.376;2022-12-13T09:49:25;96763.91;;;-6.58
19196;BMP280;9730;48.926;11.376;2022-12-13T09:51:54;96759.78;;;-6.60
19196;BMP280;9730;48.926;11.376;2022-12-13T09:54:24;96747.50;;;-6.65
19196;BMP280;9730;48.926;11.376;2022-12-13T09:56:53;96736.16;;;-6.52
19196;BMP280;9730;48.926;11.376;2022-12-13T09:59:25;96735.34;;;-6.51
19196;BMP280;9730;48.926;11.376;2022-12-13T10:01:53;96744.25;;;-6.61
19196;BMP280;9730;48.926;11.376;2022-12-13T10:04:20;96742.75;;;-6.45
19196;BMP280;9730;48.926;11.376;2022-12-13T10:06:50;96737.94;;;-6.29
19196;BMP280;9730;48.926;11.376;2022-12-13T10:09:17;96742.94;;;-6.16
19196;BMP280;9730;48.926;11.376;2022-12-13T10:11:50;96744.56;;;-6.18
19196;BMP280;9730;48.926;11.376;2022-12-13T10:14:22;96736.41;;;-6.15
19196;BMP280;9730;48.926;11.376;2022-12-13T10:16:53;96738.09;;;-6.05
19196;BMP280;9730;48.926;11.376;2022-12-13T10:19:26;96726.69;;;-5.91
19196;BMP280;9730;48.926;11.376;2022-12-13T10:21:54;96721.78;;;-5.91
19196;BMP280;9730;48.926;11.376;2022-12-13T10:24:22;96716.84;;;-5.96
19196;BMP280;9730;48.926;11.376;2022-12-13T10:26:51;96722.69;;;-5.70
19196;BMP280;9730;48.926;11.376;2022-12-13T10:29:19;96717.72;;;-5.86
19196;BMP280;9730;48.926;11.376;2022-12-13T10:31:47;96716.13;;;-5.77
19196;BMP280;9730;48.926;11.376;2022-12-13T10:34:21;96714.47;;;-5.82
19196;BMP280;9730;48.926;11.376;2022-12-13T10:36:48;96700.59;;;-5.60
19196;BMP280;9730;48.926;11.376;2022-12-13T10:39:17;96694.91;;;-5.42
19196;BMP280;9730;48.926;11.376;2022-12-13T10:41:45;96707.25;;;-5.23
19196;BMP280;9730;48.926;11.376;2022-12-13T10:44:21;96708.06;;;-5.37
19196;BMP280;9730;48.926;11.376;2022-12-13T10:47:03;96706.44;;;-5.10
19196;BMP280;9730;48.926;11.376;2022-12-13T10:49:46;96707.28;;;-4.98
19196;BMP280;9730;48.926;11.376;2022-12-13T10:52:24;96705.66;;;-4.97
19196;BMP280;9730;48.926;11.376;2022-12-13T10:54:52;96707.28;;;-4.77
19196;BMP280;9730;48.926;11.376;2022-12-13T10:57:19;96705.66;;;-4.56
19196;BMP280;9730;48.926;11.376;2022-12-13T10:59:48;96722.84;;;-4.16
19196;BMP280;9730;48.926;11.376;2022-12-13T11:02:31;96737.56;;;-3.80
19196;BMP280;9730;48.926;11.376;2022-12-13T11:04:59;96738.94;;;-3.24
19196;BMP280;9730;48.926;11.376;2022-12-13T11:07:41;96755.09;;;-2.69
19196;BMP280;9730;48.926;11.376;2022-12-13T11:10:16;96777.44;;;-1.84
19196;BMP280;9730;48.926;11.376;2022-12-13T11:12:46;96770.47;;;-1.51
19196;BMP280;9730;48.926;11.376;2022-12-13T11:15:16;96742.03;;;-1.19
19196;BMP280;9730;48.926;11.376;2022-12-13T11:17:47;96735.91;;;-0.37
19196;BMP280;9730;48.926;11.376;2022-12-13T11:20:16;96704.09;;;-0.62
19196;BMP280;9730;48.926;11.376;2022-12-13T11:22:43;96678.41;;;-0.09
19196;BMP280;9730;48.926;11.376;2022-12-13T11:25:19;96630.31;;;-1.52
19196;BMP280;9730;48.926;11.376;2022-12-13T11:27:56;96635.66;;;-1.20
19196;BMP280;9730;48.926;11.376;2022-12-13T11:30:32;96613.19;;;-1.64
19196;BMP280;9730;48.926;11.376;2022-12-13T11:33:12;96616.72;;;-1.23
19196;BMP280;9730;48.926;11.376;2022-12-13T11:35:53;96611.59;;;-1.68
19196;BMP280;9730;48.926;11.376;2022-12-13T11:38:28;96615.41;;;-1.45
19196;BMP280;9730;48.926;11.376;2022-12-13T11:40:59;96605.53;;;-1.48
19196;BMP280;9730;48.926;11.376;2022-12-13T11:43:32;96590.22;;;-1.72
19196;BMP280;9730;48.926;11.376;2022-12-13T11:46:05;96587.34;;;-1.45
19196;BMP280;9730;48.926;11.376;2022-12-13T11:48:41;96584.84;;;-0.88
19196;BMP280;9730;48.926;11.376;2022-12-13T11:51:10;96570.00;;;-0.91
19196;BMP280;9730;48.926;11.376;2022-12-13T11:53:44;96548.75;;;-0.14
19196;BMP280;9730;48.926;11.376;2022-12-13T11:56:18;96517.78;;;0.06
19196;BMP280;9730;48.926;11.376;2022-12-13T11:58:54;96482.59;;;-0.51
19196;BMP280;9730;48.926;11.376;2022-12-13T12:01:29;96471.94;;;0.24
19196;BMP280;9730;48.926;11.376;2022-12-13T12:03:59;96449.84;;;-0.65
19196;BMP280;9730;48.926;11.376;2022-12-13T12:06:33;96468.72;;;-1.02
19196;BMP280;9730;48.926;11.376;2022-12-13T12:09:05;96474.75;;;-0.71
19196;BMP280;9730;48.926;11.376;2022-12-13T12:11:34;96480.59;;;-1.20
19196;BMP280;9730;48.926;11.376;2022-12-13T12:14:11;96481.34;;;-0.70
19196;BMP280;9730;48.926;11.376;2022-12-13T12:16:43;96481.78;;;-0.09
19196;BMP280;9730;48.926;11.376;2022-12-13T12:19:14;96450.66;;;0.50
19196;BMP280;9730;48.926;11.376;2022-12-13T12:21:51;96416.13;;;0.41
19196;BMP280;9730;48.926;11.376;2022-12-13T12:24:21;96418.59;;;-0.70
19196;BMP280;9730;48.926;11.376;2022-12-13T12:26:56;96430.53;;;-0.09
19196;BMP280;9730;48.926;11.376;2022-12-13T12:29:46;96415.63;;;0.27
19196;BMP280;9730;48.926;11.376;2022-12-13T12:32:28;96389.00;;;0.00
19196;BMP280;9730;48.926;11.376;2022-12-13T12:35:07;96375.78;;;0.35
19196;BMP280;9730;48.926;11.376;2022-12-13T12:37:44;96371.75;;;0.62
19196;BMP280;9730;48.926;11.376;2022-12-13T12:40:44;96361.19;;;0.86
19196;BMP280;9730;48.926;11.376;2022-12-13T12:43:22;96338.63;;;-0.02
19196;BMP280;9730;48.926;11.376;2022-12-13T12:45:59;96371.97;;;-0.51
19196;BMP280;9730;48.926;11.376;2022-12-13T12:48:54;96386.47;;;-0.73
19196;BMP280;9730;48.926;11.376;2022-12-13T12:51:28;96393.41;;;-0.90
19196;BMP280;9730;48.926;11.376;2022-12-13T12:54:07;96433.88;;;-0.93
19196;BMP280;9730;48.926;11.376;2022-12-13T12:56:40;96439.34;;;-0.74
19196;BMP280;9730;48.926;11.376;2022-12-13T12:59:19;96423.69;;;-0.36
19196;BMP280;9730;48.926;11.376;2022-12-13T13:01:53;96390.00;;;-0.44
19196;BMP280;9730;48.926;11.376;2022-12-13T13:04:26;96386.75;;;-0.10
19196;BMP280;9730;48.926;11.376;2022-12-13T13:06:58;96347.38;;;-0.59
19196;BMP280;9730;48.926;11.376;2022-12-13T13:09:26;96354.00;;;-0.99
19196;BMP280;9730;48.926;11.376;2022-12-13T13:11:53;96367.84;;;-0.91
19196;BMP280;9730;48.926;11.376;2022-12-13T13:14:29;96366.44;;;-0.63
19196;BMP280;9730;48.926;11.376;2022-12-13T13:16:57;96362.41;;;-1.53
19196;BMP280;9730;48.926;11.376;2022-12-13T13:19:42;96388.09;;;-1.59
19196;BMP280;9730;48.926;11.376;2022-12-13T13:22:36;96404.13;;;-1.83
19196;BMP280;9730;48.926;11.376;2022-12-13T13:25:27;96403.00;;;-1.65
19196;BMP280;9730;48.926;11.376;2022-12-13T13:28:03;96405.88;;;-1.89
19196;BMP280;9730;48.926;11.376;2022-12-13T13:30:31;96404.16;;;-2.40
19196;BMP280;9730;48.926;11.376;2022-12-13T13:32:58;96423.31;;;-1.98
19196;BMP280;9730;48.926;11.376;2022-12-13T13:35:50;96412.00;;;-2.14
19196;BMP280;9730;48.926;11.376;2022-12-13T13:38:27;96413.22;;;-1.83
19196;BMP280;9730;48.926;11.376;2022-12-13T13:41:37;96403.44;;;-1.91
19196;BMP280;9730;48.926;11.376;2022-12-13T13:47:39;96412.06;;;-2.77
19196;BMP280;9730;48.926;11.376;2022-12-13T13:53:44;96423.94;;;-2.43
19196;BMP280;9730;48.926;11.376;2022-12-13T13:59:46;96436.38;;;-2.50
19196;BMP280;9730;48.926;11.376;2022-12-13T14:03:03;96435.63;;;-2.55
19196;BMP280;9730;48.926;11.376;2022-12-13T14:06:06;96437.38;;;-2.62
19196;BMP280;9730;48.926;11.376;2022-12-13T14:08:48;96418.19;;;-3.11
19196;BMP280;9730;48.926;11.376;2022-12-13T14:11:48;96436.13;;;-2.98
19196;BMP280;9730;48.926;11.376;2022-12-13T14:14:46;96442.69;;;-2.94
19196;BMP280;9730;48.926;11.376;2022-12-13T14:20:59;96443.00;;;-3.27
19196;BMP280;9730;48.926;11.376;2022-12-13T14:23:39;96445.63;;;-3.42
19196;BMP280;9730;48.926;11.376;2022-12-13T14:26:20;96453.91;;;-3.50
19196;BMP280;9730;48.926;11.376;2022-12-13T14:28:52;96457.47;;;-3.85
19196;BMP280;9730;48.926;11.376;2022-12-13T14:31:21;96486.09;;;-3.67
19196;BMP280;9730;48.926;11.376;2022-12-13T14:33:50;96482.06;;;-3.76
19196;BMP280;9730;48.926;11.376;2022-12-13T14:36:25;96491.91;;;-3.78
19196;BMP280;9730;48.926;11.376;2022-12-13T14:38:58;96498.50;;;-3.77
19196;BMP280;9730;48.926;11.376;2022-12-13T14:41:28;96492.06;;;-4.00
19196;BMP280;9730;48.926;11.376;2022-12-13T14:43:55;96494.63;;;-4.17